Time;durP1;ratioP1;P1;durP2;ratioP2;P2;SDS_P1;SDS_P2;PMS_P1;PMS_P2;Temp;Humidity;BMP_temperature;BMP_pressure;BME280_temperature;BME280_humidity;BME280_pressure;Samples;Min_cycle;Max_cycle;Signal;HPM_P1;HPM_P2
2021/12/28 00:02:16;;;;;;;22.30;11.60;;;;;;;;;;6298305;22;20011;-80
2021/12/28 00:04:43;;;;;;;24.98;12.30;;;;;;;;;;6296952;22;20004;-80
2021/12/28 00:07:18;;;;;;;24.42;12.38;;;;;;;;;;6297120;22;20016;-80
2021/12/28 00:09:47;;;;;;;24.20;12.70;;;;;;;;;;6297112;22;19992;-80
2021/12/28 00:12:16;;;;;;;22.33;11.40;;;;;;;;;;6297919;22;20011;-79
2021/12/28 00:20:52;;;;;;;22.38;11.23;;;;;;;;;;6295720;22;20018;-79
2021/12/28 00:23:58;;;;;;;21.27;11.52;;;;;;;;;;6296841;22;20065;-79
2021/12/28 00:26:28;;;;;;;23.77;12.48;;;;;;;;;;6290318;22;20000;-81
2021/12/28 00:35:16;;;;;;;26.80;12.30;;;;;;;;;;6281174;22;19991;-82
2021/12/28 00:37:28;;;;;;;27.38;12.95;;;;;;;;;;6288175;22;20047;-80
2021/12/28 00:40:13;;;;;;;24.23;11.85;;;;;;;;;;6302609;22;19983;-82
2021/12/28 00:43:05;;;;;;;20.92;12.13;;;;;;;;;;6300736;22;20011;-80
2021/12/28 00:45:37;;;;;;;25.40;11.98;;;;;;;;;;6289364;22;20008;-80
2021/12/28 00:48:09;;;;;;;26.67;11.55;;;;;;;;;;6277017;22;19984;-82
2021/12/28 00:50:55;;;;;;;30.02;10.57;;;;;;;;;;6300892;22;19988;-83
2021/12/28 00:53:41;;;;;;;26.45;11.93;;;;;;;;;;6297959;22;20051;-80
2021/12/28 00:56:15;;;;;;;25.48;12.25;;;;;;;;;;6296179;22;20011;-79
2021/12/28 00:58:44;;;;;;;29.13;12.15;;;;;;;;;;6295331;22;20011;-80
2021/12/28 01:01:13;;;;;;;31.02;13.02;;;;;;;;;;6269495;22;20090;-80
2021/12/28 01:03:44;;;;;;;23.38;12.38;;;;;;;;;;6296282;22;20061;-80
2021/12/28 01:06:33;;;;;;;25.40;11.35;;;;;;;;;;6297085;22;20003;-80
2021/12/28 01:09:02;;;;;;;27.75;11.80;;;;;;;;;;6297613;22;20020;-80
2021/12/28 01:11:31;;;;;;;28.95;12.30;;;;;;;;;;6305111;22;20007;-82
2021/12/28 01:14:21;;;;;;;29.25;12.85;;;;;;;;;;6300087;22;20303;-80
2021/12/28 01:16:55;;;;;;;24.35;11.30;;;;;;;;;;6303168;22;20011;-80
2021/12/28 01:19:24;;;;;;;22.95;11.23;;;;;;;;;;6305303;22;19988;-81
2021/12/28 01:21:55;;;;;;;28.05;12.82;;;;;;;;;;6303094;22;20002;-80
2021/12/28 01:24:26;;;;;;;29.60;12.18;;;;;;;;;;6303246;22;20004;-79
2021/12/28 01:27:00;;;;;;;27.08;12.07;;;;;;;;;;6297305;22;20007;-79
2021/12/28 01:29:29;;;;;;;28.08;12.45;;;;;;;;;;6296334;22;20007;-81
2021/12/28 01:32:00;;;;;;;24.55;10.82;;;;;;;;;;6297502;22;20000;-79
2021/12/28 01:37:52;;;;;;;;;;;;;;;;;;;;;
2021/12/28 01:40:44;;;;;;;26.38;10.85;;;;;;;;;;6304837;22;19996;-80
2021/12/28 01:43:21;;;;;;;25.48;11.18;;;;;;;;;;6298686;22;20000;-80
2021/12/28 01:55:12;;;;;;;24.83;11.40;;;;;;;;;;6181002;23;20035;-81
2021/12/28 01:57:44;;;;;;;18.33;10.50;;;;;;;;;;6174080;23;20062;-79
2021/12/28 02:00:18;;;;;;;29.23;10.82;;;;;;;;;;6147541;23;20001;-81
2021/12/28 02:02:46;;;;;;;28.55;11.07;;;;;;;;;;6172377;23;20464;-80
2021/12/28 02:05:33;;;;;;;26.10;11.32;;;;;;;;;;6170887;23;20061;-79
2021/12/28 02:08:22;;;;;;;26.05;11.38;;;;;;;;;;6173694;23;20001;-81
2021/12/28 02:10:52;;;;;;;24.35;11.02;;;;;;;;;;6174322;23;20063;-81
2021/12/28 02:13:21;;;;;;;25.73;10.88;;;;;;;;;;6150236;23;20017;-81
2021/12/28 02:15:53;;;;;;;22.23;10.32;;;;;;;;;;6149575;23;20069;-81
2021/12/28 02:18:22;;;;;;;27.02;10.90;;;;;;;;;;6184360;22;20431;-80
2021/12/28 02:21:12;;;;;;;23.70;10.35;;;;;;;;;;6295401;22;20014;-80
2021/12/28 02:23:38;;;;;;;32.67;12.60;;;;;;;;;;6294759;22;20003;-79
2021/12/28 02:26:13;;;;;;;34.55;11.32;;;;;;;;;;6294084;22;20008;-78
2021/12/28 02:28:44;;;;;;;24.88;10.95;;;;;;;;;;6295264;22;20004;-81
2021/12/28 02:31:17;;;;;;;24.77;10.57;;;;;;;;;;6299743;22;19999;-80
2021/12/28 02:33:49;;;;;;;25.75;10.52;;;;;;;;;;6300979;22;20004;-81
2021/12/28 02:36:19;;;;;;;25.70;11.18;;;;;;;;;;6300360;22;20010;-79
2021/12/28 02:38:49;;;;;;;20.95;10.85;;;;;;;;;;6298214;22;20055;-80
2021/12/28 02:41:24;;;;;;;23.52;11.02;;;;;;;;;;6297784;22;20003;-80
2021/12/28 02:44:07;;;;;;;27.67;11.50;;;;;;;;;;6299950;22;20003;-81
2021/12/28 02:46:38;;;;;;;28.63;12.00;;;;;;;;;;6297696;22;20000;-81
2021/12/28 02:49:11;;;;;;;25.95;10.40;;;;;;;;;;6270865;22;20030;-78
2021/12/28 02:51:41;;;;;;;27.98;11.48;;;;;;;;;;6296983;22;20011;-80
2021/12/28 02:54:29;;;;;;;25.38;12.13;;;;;;;;;;6297508;22;20003;-80
2021/12/28 02:56:56;;;;;;;26.23;10.52;;;;;;;;;;6295456;22;20018;-80
2021/12/28 02:59:32;;;;;;;25.63;10.65;;;;;;;;;;6294761;22;19996;-78
2021/12/28 03:02:01;;;;;;;24.02;11.70;;;;;;;;;;6290043;22;20059;-76
2021/12/28 03:04:57;;;;;;;28.27;11.32;;;;;;;;;;6291173;22;20047;-78
2021/12/28 03:07:37;;;;;;;24.53;11.10;;;;;;;;;;6290186;22;20434;-77
2021/12/28 03:10:18;;;;;;;23.60;10.30;;;;;;;;;;6291826;22;20004;-77
2021/12/28 03:13:04;;;;;;;34.63;11.98;;;;;;;;;;6291967;22;20330;-77
2021/12/28 03:15:39;;;;;;;24.38;10.02;;;;;;;;;;6290389;22;20008;-77
2021/12/28 03:21:35;;;;;;;25.80;10.55;;;;;;;;;;6291761;22;20008;-77
2021/12/28 03:24:23;;;;;;;18.23;8.73;;;;;;;;;;6291489;22;20011;-77
2021/12/28 03:27:00;;;;;;;26.67;10.13;;;;;;;;;;6290325;22;20390;-77
2021/12/28 03:29:31;;;;;;;25.73;9.98;;;;;;;;;;6291671;22;20007;-77
2021/12/28 03:32:01;;;;;;;20.85;9.18;;;;;;;;;;6289886;22;20007;-78
2021/12/28 03:34:36;;;;;;;23.52;10.70;;;;;;;;;;6291678;22;20003;-76
2021/12/28 03:37:05;;;;;;;25.92;11.38;;;;;;;;;;6291686;22;20007;-77
2021/12/28 03:39:31;;;;;;;20.27;9.82;;;;;;;;;;6289508;22;20003;-78
2021/12/28 03:42:06;;;;;;;24.58;9.60;;;;;;;;;;6264336;22;20031;-77
2021/12/28 03:44:41;;;;;;;22.25;10.80;;;;;;;;;;6289909;22;20003;-77
2021/12/28 03:47:10;;;;;;;;;;;;;;;;;;6291796;22;19999;-77
2021/12/28 03:49:43;;;;;;;28.92;9.63;;;;;;;;;;6289918;22;19922;-78
2021/12/28 03:52:27;;;;;;;18.45;8.30;;;;;;;;;;6291589;22;20012;-76
2021/12/28 03:55:00;;;;;;;16.88;7.43;;;;;;;;;;6289851;22;20003;-77
2021/12/28 03:57:27;;;;;;;17.90;8.30;;;;;;;;;;6291492;22;20006;-76
2021/12/28 04:00:16;;;;;;;18.77;7.47;;;;;;;;;;6289715;22;20007;-76
2021/12/28 04:03:12;;;;;;;;;;;;;;;;;;;;;
2021/12/28 04:06:08;;;;;;;18.55;7.97;;;;;;;;;;6277007;22;20407;-77
2021/12/28 04:08:52;;;;;;;16.65;7.53;;;;;;;;;;6289508;22;20083;-78
2021/12/28 04:11:46;;;;;;;18.52;7.68;;;;;;;;;;6291237;22;20007;-77
2021/12/28 04:17:38;;;;;;;;;;;;;;;;;;;;;
2021/12/28 04:23:15;;;;;;;16.55;7.45;;;;;;;;;;6176351;23;20012;-77
2021/12/28 04:25:46;;;;;;;17.02;7.60;;;;;;;;;;6176051;23;20005;-77
2021/12/28 04:28:13;;;;;;;19.60;7.80;;;;;;;;;;6172516;23;20001;-77
2021/12/28 04:30:57;;;;;;;21.95;7.80;;;;;;;;;;6197583;23;20063;-78
2021/12/28 04:33:38;;;;;;;;;;;;;;;;;;;;;
2021/12/28 04:41:55;;;;;;;16.60;7.22;;;;;;;;;;6271558;22;20449;-77
2021/12/28 04:44:39;;;;;;;17.55;6.90;;;;;;;;;;6292941;22;19992;-78
2021/12/28 04:49:58;;;;;;;17.52;7.50;;;;;;;;;;6292952;22;20050;-76
2021/12/28 04:56:41;;;;;;;;;;;;;;;;;;;;;
2021/12/28 04:58:47;;;;;;;13.40;6.30;;;;;;;;;;6273319;22;20000;-77
2021/12/28 05:01:15;;;;;;;15.70;7.35;;;;;;;;;;6291842;22;20004;-76
2021/12/28 05:04:00;;;;;;;;;;;;;;;;;;;;;
2021/12/28 05:06:53;;;;;;;17.08;6.68;;;;;;;;;;6288278;22;20027;-77
2021/12/28 05:09:22;;;;;;;15.43;6.47;;;;;;;;;;6279197;22;20030;-77
2021/12/28 05:15:02;;;;;;;;;;;;;;;;;;;;;
2021/12/28 05:17:39;;;;;;;7.72;3.67;;;;;;;;;;6285817;22;20054;-77
2021/12/28 05:20:14;;;;;;;4.45;2.85;;;;;;;;;;6289512;22;20003;-78
2021/12/28 05:22:58;;;;;;;;;;;;;;;;;;;;;
2021/12/28 05:28:56;;;;;;;4.15;2.75;;;;;;;;;;6285652;22;20011;-77
2021/12/28 05:31:41;;;;;;;;;;;;;;;;;;;;;
2021/12/28 05:34:08;;;;;;;2.97;1.77;;;;;;;;;;6291929;22;20023;-76
2021/12/28 05:36:37;;;;;;;3.45;1.98;;;;;;;;;;6291768;22;20027;-78
2021/12/28 05:39:23;;;;;;;3.90;2.40;;;;;;;;;;6290669;22;20497;-77
2021/12/28 05:41:56;;;;;;;5.10;2.60;;;;;;;;;;6290995;22;20000;-76
2021/12/28 05:44:25;;;;;;;4.47;3.08;;;;;;;;;;6290973;22;20000;-77
2021/12/28 05:47:13;;;;;;;3.60;2.50;;;;;;;;;;6292448;22;20023;-77
2021/12/28 05:49:43;;;;;;;5.05;2.60;;;;;;;;;;6291676;22;20004;-77
2021/12/28 05:52:17;;;;;;;3.95;2.47;;;;;;;;;;6290896;22;20389;-78
2021/12/28 05:54:46;;;;;;;2.95;2.42;;;;;;;;;;6290656;22;20008;-78
2021/12/28 05:57:17;;;;;;;3.78;2.45;;;;;;;;;;6290436;22;20003;-77
2021/12/28 06:00:04;;;;;;;2.55;2.10;;;;;;;;;;6290605;22;20073;-78
2021/12/28 06:02:35;;;;;;;3.05;2.40;;;;;;;;;;6291426;22;20059;-77
2021/12/28 06:05:31;;;;;;;2.92;2.20;;;;;;;;;;6292028;22;19992;-77
2021/12/28 06:08:08;;;;;;;2.50;2.00;;;;;;;;;;6291666;22;20007;-78
2021/12/28 06:10:54;;;;;;;2.80;2.20;;;;;;;;;;6290696;22;20008;-77
2021/12/28 06:13:41;;;;;;;2.92;2.45;;;;;;;;;;6292266;22;20022;-78
2021/12/28 06:16:11;;;;;;;2.65;2.30;;;;;;;;;;6292130;22;20453;-76
2021/12/28 06:18:40;;;;;;;34.00;3.65;;;;;;;;;;6291351;22;20003;-77
2021/12/28 06:21:27;;;;;;;;;;;;;;;;;;;;;
2021/12/28 06:24:03;;;;;;;3.63;2.42;;;;;;;;;;6291709;22;20026;-78
2021/12/28 06:26:47;;;;;;;4.07;2.50;;;;;;;;;;6290288;22;20008;-77
2021/12/28 06:29:28;;;;;;;3.67;2.45;;;;;;;;;;6290151;22;20003;-77
2021/12/28 06:35:06;;;;;;;5.03;3.83;;;;;;;;;;6288956;22;20018;-79
2021/12/28 06:37:36;;;;;;;7.13;4.53;;;;;;;;;;6290382;22;20035;-76
2021/12/28 06:40:25;;;;;;;4.70;3.65;;;;;;;;;;6291795;22;20420;-77
2021/12/28 06:42:57;;;;;;;6.28;3.80;;;;;;;;;;6292140;22;20015;-77
2021/12/28 06:46:00;;;;;;;4.68;3.90;;;;;;;;;;6290422;22;20003;-76
2021/12/28 06:51:31;;;;;;;5.32;3.38;;;;;;;;;;6291560;22;20003;-78
2021/12/28 06:54:00;;;;;;;4.55;2.85;;;;;;;;;;6291670;22;20003;-78
2021/12/28 06:56:34;;;;;;;5.53;3.83;;;;;;;;;;6290216;22;20069;-76
2021/12/28 06:59:01;;;;;;;3.88;2.92;;;;;;;;;;6265018;22;20011;-77
2021/12/28 07:01:36;;;;;;;5.15;3.20;;;;;;;;;;6290982;22;19992;-77
2021/12/28 07:04:07;;;;;;;7.03;3.15;;;;;;;;;;6264659;22;20000;-77
2021/12/28 07:06:36;;;;;;;6.30;3.47;;;;;;;;;;6294539;22;20029;-78
2021/12/28 07:09:08;;;;;;;8.10;4.10;;;;;;;;;;6295621;22;20072;-77
2021/12/28 07:11:40;;;;;;;10.90;5.43;;;;;;;;;;6292108;22;20007;-77
2021/12/28 07:14:12;;;;;;;9.40;5.32;;;;;;;;;;6292235;22;20006;-77
2021/12/28 07:16:43;;;;;;;12.73;6.70;;;;;;;;;;6291629;22;20004;-78
2021/12/28 07:19:11;;;;;;;11.73;7.10;;;;;;;;;;6291820;22;19992;-78
2021/12/28 07:21:44;;;;;;;12.70;6.75;;;;;;;;;;6265068;22;20011;-78
2021/12/28 07:24:16;;;;;;;13.43;7.13;;;;;;;;;;6291802;22;20066;-78
2021/12/28 07:26:48;;;;;;;16.38;7.80;;;;;;;;;;6291609;22;20008;-77
2021/12/28 07:29:35;;;;;;;14.27;8.15;;;;;;;;;;6289876;22;20401;-78
2021/12/28 07:32:19;;;;;;;17.48;8.02;;;;;;;;;;6290166;22;20008;-78
2021/12/28 07:34:48;;;;;;;11.73;6.63;;;;;;;;;;6289669;22;20059;-77
2021/12/28 07:37:20;;;;;;;14.38;7.30;;;;;;;;;;6289861;22;20012;-78
2021/12/28 07:39:56;;;;;;;9.38;6.00;;;;;;;;;;6290208;22;20061;-77
2021/12/28 07:42:38;;;;;;;;;;;;;;;;;;;;;
2021/12/28 07:45:13;;;;;;;12.73;5.57;;;;;;;;;;6292018;22;20395;-78
2021/12/28 07:47:43;;;;;;;8.07;5.07;;;;;;;;;;6289133;22;20011;-77
2021/12/28 07:50:17;;;;;;;8.38;4.82;;;;;;;;;;6291762;22;20008;-77
2021/12/28 07:52:46;;;;;;;7.80;5.03;;;;;;;;;;6290656;22;20000;-77
2021/12/28 07:55:20;;;;;;;8.73;5.25;;;;;;;;;;6291648;22;20055;-78
2021/12/28 07:57:51;;;;;;;8.75;5.05;;;;;;;;;;6289832;22;20311;-79
2021/12/28 08:00:22;;;;;;;10.43;6.60;;;;;;;;;;6289639;22;20000;-77
2021/12/28 08:02:52;;;;;;;10.80;5.57;;;;;;;;;;6289766;22;20007;-78
2021/12/28 08:05:18;;;;;;;8.30;5.43;;;;;;;;;;6291647;22;20158;-78
2021/12/28 08:08:12;;;;;;;9.45;4.95;;;;;;;;;;6290174;22;20016;-80
2021/12/28 08:10:41;;;;;;;10.60;4.65;;;;;;;;;;6289525;22;20012;-78
2021/12/28 08:13:10;;;;;;;10.32;5.15;;;;;;;;;;6266203;22;20050;-78
2021/12/28 08:15:56;;;;;;;;;;;;;;;;;;;;;
2021/12/28 08:18:31;;;;;;;9.55;4.78;;;;;;;;;;6293452;22;20003;-78
2021/12/28 08:21:00;;;;;;;8.15;5.18;;;;;;;;;;6291855;22;20004;-78
2021/12/28 08:23:44;;;;;;;9.38;4.40;;;;;;;;;;6293526;22;19995;-78
2021/12/28 08:26:19;;;;;;;7.50;4.95;;;;;;;;;;6291718;22;19996;-78
2021/12/28 08:28:46;;;;;;;9.32;5.28;;;;;;;;;;6293921;22;20003;-77
2021/12/28 08:31:23;;;;;;;8.85;4.55;;;;;;;;;;6291975;22;20004;-78
2021/12/28 08:33:52;;;;;;;9.85;4.72;;;;;;;;;;6267149;22;20078;-77
2021/12/28 08:36:33;;;;;;;8.15;4.50;;;;;;;;;;6293177;22;20008;-78
2021/12/28 08:39:08;;;;;;;9.77;5.40;;;;;;;;;;6298421;22;20006;-78
2021/12/28 08:41:43;;;;;;;;;;;;;;;;;;6293641;22;20079;-77
2021/12/28 08:44:12;;;;;;;9.27;4.70;;;;;;;;;;6292031;22;19922;-79
2021/12/28 08:49:47;;;;;;;8.75;5.00;;;;;;;;;;6277343;22;20003;-78
2021/12/28 08:52:26;;;;;;;7.95;4.90;;;;;;;;;;6292365;22;20004;-78
2021/12/28 08:55:13;;;;;;;7.78;4.50;;;;;;;;;;6291543;22;20000;-77
2021/12/28 08:57:49;;;;;;;9.95;5.25;;;;;;;;;;6291162;22;20012;-79
2021/12/28 09:03:23;;;;;;;8.27;5.30;;;;;;;;;;6271444;22;20004;-78
2021/12/28 09:09:22;;;;;;;7.65;4.38;;;;;;;;;;6281184;22;20027;-77
2021/12/28 09:11:57;;;;;;;9.40;5.32;;;;;;;;;;6291716;22;20008;-78
2021/12/28 09:15:14;;;;;;;10.63;5.47;;;;;;;;;;6292230;22;20015;-77
2021/12/28 09:17:33;;;;;;;9.45;5.63;;;;;;;;;;6283325;22;20067;-76
2021/12/28 09:20:02;;;;;;;7.82;4.78;;;;;;;;;;6291274;22;20011;-78
2021/12/28 09:22:48;;;;;;;10.00;6.13;;;;;;;;;;6292905;22;20000;-78
2021/12/28 09:25:20;;;;;;;10.18;6.00;;;;;;;;;;6290825;22;20002;-77
2021/12/28 09:27:49;;;;;;;10.50;5.68;;;;;;;;;;6293154;22;20117;-78
2021/12/28 09:30:21;;;;;;;10.82;5.72;;;;;;;;;;6291673;22;19996;-77
2021/12/28 09:32:56;;;;;;;10.00;6.20;;;;;;;;;;6291182;22;20000;-78
2021/12/28 09:35:25;;;;;;;9.48;6.20;;;;;;;;;;6291413;22;20004;-77
2021/12/28 09:38:13;;;;;;;9.65;6.43;;;;;;;;;;6265848;22;20004;-78
2021/12/28 09:41:27;;;;;;;10.55;6.03;;;;;;;;;;6292811;22;20334;-77
2021/12/28 09:43:57;;;;;;;9.00;5.28;;;;;;;;;;6277306;22;20011;-78
2021/12/28 09:46:29;;;;;;;10.25;5.47;;;;;;;;;;6275541;22;20329;-77
2021/12/28 09:49:04;;;;;;;9.73;5.65;;;;;;;;;;6291634;22;20422;-77
2021/12/28 09:51:33;;;;;;;9.00;5.30;;;;;;;;;;6291514;22;20023;-78
2021/12/28 09:54:03;;;;;;;10.60;5.25;;;;;;;;;;6290666;22;20004;-77
2021/12/28 09:56:51;;;;;;;8.95;5.55;;;;;;;;;;6290664;22;20008;-77
2021/12/28 09:59:38;;;;;;;11.20;5.88;;;;;;;;;;6290989;22;20019;-78
2021/12/28 10:02:10;;;;;;;11.07;6.70;;;;;;;;;;6290678;22;20000;-78
2021/12/28 10:04:54;;;;;;;11.38;5.88;;;;;;;;;;6290830;22;20011;-77
2021/12/28 10:10:37;;;;;;;10.82;6.25;;;;;;;;;;6235690;22;20027;-78
2021/12/28 10:13:30;;;;;;;10.32;6.10;;;;;;;;;;6291192;22;20018;-78
2021/12/28 10:15:58;;;;;;;11.38;5.72;;;;;;;;;;6276554;22;20008;-78
2021/12/28 10:18:41;;;;;;;;;;;;;;;;;;;;;
2021/12/28 10:21:49;;;;;;;9.82;5.68;;;;;;;;;;6293026;22;19996;-78
2021/12/28 10:24:47;;;;;;;;;;;;;;;;;;;;;
2021/12/28 10:27:22;;;;;;;10.10;5.70;;;;;;;;;;6292763;22;20003;-78
2021/12/28 10:29:51;;;;;;;9.15;5.28;;;;;;;;;;6295141;22;20006;-78
2021/12/28 10:32:42;;;;;;;9.90;6.07;;;;;;;;;;6293387;22;20098;-77
2021/12/28 10:35:12;;;;;;;10.90;6.05;;;;;;;;;;6291469;22;20007;-78
2021/12/28 10:47:15;;;;;;;12.43;6.15;;;;;;;;;;6292741;22;20395;-78
2021/12/28 10:49:50;;;;;;;10.57;7.60;;;;;;;;;;6292223;22;20000;-78
2021/12/28 10:52:59;;;;;;;10.43;5.68;;;;;;;;;;6290332;22;19996;-79
2021/12/28 10:58:49;;;;;;;55.10;24.92;;;;;;;;;;6295924;22;20011;-78
2021/12/28 11:01:39;;;;;;;22.60;13.05;;;;;;;;;;6298028;22;19999;-79
2021/12/28 11:04:09;;;;;;;18.23;10.70;;;;;;;;;;6297759;22;20023;-77
2021/12/28 11:06:59;;;;;;;14.75;8.88;;;;;;;;;;6295722;22;20039;-78
2021/12/28 11:10:00;;;;;;;29.83;15.18;;;;;;;;;;6294110;22;20000;-82
2021/12/28 11:12:57;;;;;;;24.17;14.75;;;;;;;;;;6200592;23;19989;-81
2021/12/28 11:20:40;;;;;;;12.07;8.52;;;;;;;;;;6183621;22;21268;-72
2021/12/28 11:23:07;;;;;;;10.77;8.55;;;;;;;;;;6269975;22;20008;-74
2021/12/28 11:25:33;;;;;;;10.38;7.60;;;;;;;;;;6278962;22;20008;-78
2021/12/28 11:28:12;;;;;;;10.07;6.22;;;;;;;;;;6296455;22;20433;-80
2021/12/28 11:30:39;;;;;;;12.60;6.47;;;;;;;;;;6297096;22;19999;-81
2021/12/28 11:33:08;;;;;;;9.32;5.93;;;;;;;;;;6298294;22;20008;-79
2021/12/28 11:35:34;;;;;;;10.88;5.70;;;;;;;;;;6296467;22;19984;-79
2021/12/28 11:38:03;;;;;;;8.10;5.13;;;;;;;;;;6296173;22;20069;-79
2021/12/28 11:40:48;;;;;;;8.90;5.15;;;;;;;;;;6293322;22;20027;-78
2021/12/28 11:43:14;;;;;;;8.57;5.20;;;;;;;;;;6293575;22;20429;-79
2021/12/28 11:45:40;;;;;;;7.68;5.03;;;;;;;;;;6292981;22;19999;-78
2021/12/28 11:48:06;;;;;;;8.65;4.85;;;;;;;;;;6267553;22;20153;-67
2021/12/28 11:50:33;;;;;;;11.23;5.65;;;;;;;;;;6265458;22;20190;-69
2021/12/28 11:52:59;;;;;;;7.18;4.80;;;;;;;;;;6266613;22;20011;-68
2021/12/28 11:55:25;;;;;;;8.45;5.50;;;;;;;;;;6265429;22;20034;-69
2021/12/28 11:57:52;;;;;;;8.00;4.32;;;;;;;;;;6266184;22;20007;-70
2021/12/28 12:00:19;;;;;;;9.25;5.07;;;;;;;;;;6265936;22;20004;-69
2021/12/28 12:02:54;;;;;;;7.30;4.70;;;;;;;;;;6265597;22;20065;-68
2021/12/28 12:05:24;;;;;;;9.27;5.17;;;;;;;;;;6267033;22;20042;-70
2021/12/28 12:08:06;;;;;;;8.25;4.65;;;;;;;;;;6265675;22;20497;-69
2021/12/28 12:10:34;;;;;;;8.52;4.95;;;;;;;;;;6262582;22;20453;-71
2021/12/28 12:13:02;;;;;;;8.05;5.05;;;;;;;;;;6266225;22;20007;-69
2021/12/28 12:15:35;;;;;;;9.55;5.65;;;;;;;;;;6266423;22;20010;-69
2021/12/28 12:18:01;;;;;;;12.10;7.20;;;;;;;;;;6266507;22;20007;-70
2021/12/28 12:20:30;;;;;;;10.88;7.75;;;;;;;;;;6267947;22;20006;-70
2021/12/28 12:23:09;;;;;;;10.70;7.60;;;;;;;;;;6269295;22;20004;-68
2021/12/28 12:25:56;;;;;;;8.52;5.93;;;;;;;;;;6268854;22;20015;-70
2021/12/28 12:28:33;;;;;;;8.52;5.32;;;;;;;;;;6267793;22;19999;-68
2021/12/28 12:31:00;;;;;;;8.35;5.07;;;;;;;;;;6270772;22;20559;-67
2021/12/28 12:33:34;;;;;;;6.65;4.95;;;;;;;;;;6274162;22;20004;-69
2021/12/28 12:36:00;;;;;;;6.95;4.40;;;;;;;;;;6274679;22;20084;-69
2021/12/28 12:38:28;;;;;;;7.18;5.20;;;;;;;;;;6273379;22;20000;-67
2021/12/28 12:41:00;;;;;;;6.95;4.32;;;;;;;;;;6272260;22;20058;-69
2021/12/28 12:43:38;;;;;;;7.68;5.47;;;;;;;;;;6271698;22;20000;-69
2021/12/28 12:46:12;;;;;;;7.05;4.68;;;;;;;;;;6275165;22;20093;-66
2021/12/28 12:48:40;;;;;;;7.53;4.75;;;;;;;;;;6278667;22;20004;-69
2021/12/28 12:51:21;;;;;;;7.30;4.75;;;;;;;;;;6280106;22;20003;-66
2021/12/28 12:53:54;;;;;;;6.93;4.15;;;;;;;;;;6278429;22;20019;-67
2021/12/28 12:56:25;;;;;;;9.07;5.50;;;;;;;;;;6278959;22;20014;-66
2021/12/28 12:58:53;;;;;;;9.65;5.47;;;;;;;;;;6279429;22;20004;-65
2021/12/28 13:01:19;;;;;;;7.88;5.05;;;;;;;;;;6282418;22;20432;-71
2021/12/28 13:03:45;;;;;;;10.05;5.57;;;;;;;;;;6282161;22;20010;-66
2021/12/28 13:06:11;;;;;;;8.95;5.32;;;;;;;;;;6282962;22;20014;-66
2021/12/28 13:08:37;;;;;;;9.35;6.22;;;;;;;;;;6277596;22;20015;-69
2021/12/28 13:11:03;;;;;;;10.13;6.13;;;;;;;;;;6273482;22;20413;-70
2021/12/28 13:13:29;;;;;;;9.75;6.72;;;;;;;;;;6273995;22;20003;-67
2021/12/28 13:15:55;;;;;;;9.57;5.82;;;;;;;;;;6272523;22;20004;-68
2021/12/28 13:18:23;;;;;;;9.93;7.05;;;;;;;;;;6273604;22;20095;-67
2021/12/28 13:20:49;;;;;;;11.38;7.20;;;;;;;;;;6276820;22;20014;-66
2021/12/28 13:23:15;;;;;;;12.70;8.23;;;;;;;;;;6281476;22;20068;-65
2021/12/28 13:25:47;;;;;;;12.68;8.93;;;;;;;;;;6283369;22;20003;-66
2021/12/28 13:28:18;;;;;;;13.80;8.52;;;;;;;;;;6284155;22;20015;-65
2021/12/28 13:30:45;;;;;;;16.10;8.90;;;;;;;;;;6279835;22;20008;-65
2021/12/28 13:33:12;;;;;;;24.67;17.80;;;;;;;;;;6282046;22;20011;-65
2021/12/28 13:35:41;;;;;;;30.90;20.38;;;;;;;;;;6281946;22;20004;-65
2021/12/28 13:38:15;;;;;;;28.38;20.45;;;;;;;;;;6282363;22;20010;-66
2021/12/28 13:40:56;;;;;;;17.13;12.10;;;;;;;;;;6282079;22;19999;-66
2021/12/28 13:43:23;;;;;;;26.85;24.00;;;;;;;;;;6282028;22;20836;-66
2021/12/28 13:45:55;;;;;;;16.65;11.60;;;;;;;;;;6278735;22;20007;-65
2021/12/28 13:48:23;;;;;;;14.77;8.77;;;;;;;;;;6282186;22;20003;-66
2021/12/28 13:50:55;;;;;;;12.35;8.77;;;;;;;;;;6282252;22;20007;-65
2021/12/28 13:53:22;;;;;;;11.18;8.05;;;;;;;;;;6281581;22;20027;-67
2021/12/28 13:55:59;;;;;;;13.45;9.05;;;;;;;;;;6282641;22;20114;-65
2021/12/28 13:58:36;;;;;;;9.98;6.82;;;;;;;;;;6282814;22;20429;-65
2021/12/28 14:01:16;;;;;;;10.10;7.30;;;;;;;;;;6282544;22;19999;-64
2021/12/28 14:03:53;;;;;;;8.90;6.85;;;;;;;;;;6278871;22;20004;-66
2021/12/28 14:06:19;;;;;;;6.85;5.22;;;;;;;;;;6276504;22;20083;-67
2021/12/28 14:08:45;;;;;;;9.93;7.32;;;;;;;;;;6281062;22;20003;-67
2021/12/28 14:11:12;;;;;;;11.05;7.63;;;;;;;;;;6277233;22;20115;-66
2021/12/28 14:13:41;;;;;;;11.65;7.90;;;;;;;;;;6283110;22;20007;-66
2021/12/28 14:16:11;;;;;;;16.15;11.70;;;;;;;;;;6281010;22;20365;-69
2021/12/28 14:18:45;;;;;;;13.25;10.57;;;;;;;;;;6280972;22;20004;-66
2021/12/28 14:21:22;;;;;;;30.23;21.58;;;;;;;;;;6282737;22;20456;-70
2021/12/28 14:23:57;;;;;;;17.33;14.35;;;;;;;;;;6283974;22;19999;-65
2021/12/28 14:26:24;;;;;;;11.50;7.88;;;;;;;;;;6277356;22;20488;-66
2021/12/28 14:28:55;;;;;;;12.57;10.38;;;;;;;;;;6271324;22;20007;-66
2021/12/28 14:31:22;;;;;;;8.38;6.45;;;;;;;;;;6279942;22;20013;-65
2021/12/28 14:33:50;;;;;;;9.38;6.90;;;;;;;;;;6280943;22;20060;-69
2021/12/28 14:36:17;;;;;;;11.70;8.75;;;;;;;;;;6281169;22;20016;-65
2021/12/28 14:38:43;;;;;;;13.20;9.77;;;;;;;;;;6283322;22;20000;-65
2021/12/28 14:41:27;;;;;;;8.88;6.65;;;;;;;;;;6282955;22;20047;-65
2021/12/28 14:44:13;;;;;;;9.20;7.03;;;;;;;;;;6279181;22;20007;-63
2021/12/28 14:46:40;;;;;;;10.57;6.07;;;;;;;;;;6281910;22;20080;-64
2021/12/28 14:49:36;;;;;;;12.98;7.78;;;;;;;;;;6279153;22;20011;-64
2021/12/28 14:52:10;;;;;;;11.18;8.18;;;;;;;;;;6261743;22;20699;-63
2021/12/28 14:54:36;;;;;;;12.95;8.68;;;;;;;;;;6278823;22;20003;-66
2021/12/28 14:57:02;;;;;;;11.88;7.88;;;;;;;;;;6278238;22;20110;-67
2021/12/28 14:59:28;;;;;;;14.00;9.82;;;;;;;;;;6273887;22;20007;-64
2021/12/28 15:01:55;;;;;;;17.02;10.90;;;;;;;;;;6278740;22;20061;-70
2021/12/28 15:04:21;;;;;;;15.48;9.05;;;;;;;;;;6275567;22;20000;-66
2021/12/28 15:06:55;;;;;;;15.32;10.05;;;;;;;;;;6276226;22;20031;-66
2021/12/28 15:09:25;;;;;;;14.43;9.27;;;;;;;;;;6272652;22;20034;-69
2021/12/28 15:11:51;;;;;;;17.08;10.40;;;;;;;;;;6271649;22;20170;-69
2021/12/28 15:14:18;;;;;;;17.73;10.38;;;;;;;;;;6274706;22;20004;-68
2021/12/28 15:16:44;;;;;;;24.98;17.25;;;;;;;;;;6268909;22;20008;-69
2021/12/28 15:19:19;;;;;;;23.80;15.27;;;;;;;;;;6273238;22;20000;-64
2021/12/28 15:21:48;;;;;;;19.03;11.50;;;;;;;;;;6281674;22;20019;-67
2021/12/28 15:24:14;;;;;;;20.58;13.98;;;;;;;;;;6272913;22;20073;-65
2021/12/28 15:26:40;;;;;;;18.08;11.35;;;;;;;;;;6272329;22;20056;-70
2021/12/28 15:29:06;;;;;;;26.85;17.27;;;;;;;;;;6272873;22;20004;-68
2021/12/28 15:31:33;;;;;;;22.98;17.27;;;;;;;;;;6272935;22;20030;-70
2021/12/28 15:33:59;;;;;;;18.52;12.10;;;;;;;;;;6273834;22;20161;-67
2021/12/28 15:36:25;;;;;;;17.08;11.43;;;;;;;;;;6273658;22;20012;-70
2021/12/28 15:38:52;;;;;;;23.70;19.13;;;;;;;;;;6270669;22;20000;-70
2021/12/28 15:41:18;;;;;;;22.77;16.38;;;;;;;;;;6272325;22;20103;-70
2021/12/28 15:43:44;;;;;;;23.13;19.42;;;;;;;;;;6272946;22;20003;-68
2021/12/28 15:46:10;;;;;;;14.75;12.48;;;;;;;;;;6270339;22;20023;-71
2021/12/28 15:48:37;;;;;;;19.63;13.70;;;;;;;;;;6279289;22;20004;-66
2021/12/28 15:51:03;;;;;;;13.20;8.80;;;;;;;;;;6275927;22;20010;-69
2021/12/28 15:53:29;;;;;;;14.68;9.80;;;;;;;;;;6273305;22;20081;-69
2021/12/28 15:55:56;;;;;;;14.15;9.18;;;;;;;;;;6274652;22;20003;-70
2021/12/28 15:58:22;;;;;;;17.08;11.23;;;;;;;;;;6274476;22;20011;-67
2021/12/28 16:00:48;;;;;;;14.85;9.70;;;;;;;;;;6273478;22;20004;-71
2021/12/28 16:03:14;;;;;;;20.85;15.98;;;;;;;;;;6272161;22;20006;-70
2021/12/28 16:05:41;;;;;;;20.52;14.88;;;;;;;;;;6271856;22;20480;-69
2021/12/28 16:08:07;;;;;;;16.30;11.77;;;;;;;;;;6276647;22;20126;-69
2021/12/28 16:10:33;;;;;;;17.70;11.90;;;;;;;;;;6274414;22;20004;-70
2021/12/28 16:12:59;;;;;;;21.08;13.35;;;;;;;;;;6275133;22;20065;-70
2021/12/28 16:15:25;;;;;;;18.13;11.88;;;;;;;;;;6274043;22;20091;-74
2021/12/28 16:17:52;;;;;;;20.42;14.48;;;;;;;;;;6280443;22;20006;-72
2021/12/28 16:20:20;;;;;;;106.82;60.88;;;;;;;;;;6278407;22;20449;-70
2021/12/28 16:22:47;;;;;;;80.78;46.55;;;;;;;;;;6277613;22;20008;-71
2021/12/28 16:25:13;;;;;;;39.20;25.98;;;;;;;;;;6276279;22;20006;-69
2021/12/28 16:27:39;;;;;;;260.88;155.05;;;;;;;;;;6275680;22;20042;-71
2021/12/28 16:30:06;;;;;;;40.83;32.53;;;;;;;;;;6281856;22;20126;-69
2021/12/28 16:32:32;;;;;;;41.00;31.42;;;;;;;;;;6274300;22;20492;-68
2021/12/28 16:34:58;;;;;;;21.70;16.17;;;;;;;;;;6276763;22;20044;-70
2021/12/28 16:37:24;;;;;;;26.52;16.55;;;;;;;;;;6277491;22;20445;-70
2021/12/28 16:39:51;;;;;;;21.08;14.18;;;;;;;;;;6281257;22;20101;-66
2021/12/28 16:42:17;;;;;;;30.42;27.17;;;;;;;;;;6279696;22;20003;-71
2021/12/28 16:44:43;;;;;;;37.17;33.72;;;;;;;;;;6277938;22;20429;-69
2021/12/28 16:47:09;;;;;;;33.65;29.67;;;;;;;;;;6277819;22;20006;-71
2021/12/28 16:49:36;;;;;;;33.33;25.77;;;;;;;;;;6279460;22;20127;-67
2021/12/28 16:52:02;;;;;;;20.50;15.50;;;;;;;;;;6278907;22;20038;-70
2021/12/28 16:54:29;;;;;;;20.00;16.17;;;;;;;;;;6276563;22;20007;-68